Courage — WDE3893 — position and weather

sailwx.info

Track history (hours):
 
Tides and Currents Weather Stations Pressure Air Temp Water Temp Dewpoint Dewpoint Depression Visibility Wind Speed Wind Dir Waves Ship Positions

Courage

Owner: Intrepid Ship Management., jacksonville, FL. More information available from US FCC via Universal Licensing System and Coast Guard Vessel Documentation Center.

Last reported at 2018-Jun-22 17:20 UTC. Time now 2018-Jun-24 20:43 UTC.
Position N 31°21' W 080°13'.

Length 208 m; draft 6.4 m.

Type: Towing. MMSI: 368413000.

Date/timePositionNaut miles runAvg speedWind from/ knotsBaromVisibWave heightAir tempDewpointWater temp
2018-Jun-22 17:20N 31°21' W 080°13'4 7.8
2018-Jun-22 16:53N 31°24' W 080°11'11 8.0
2018-Jun-22 15:32N 31°34' W 080°06'4 8.3
2018-Jun-22 15:04N 31°38' W 080°04'3 8.2
2018-Jun-22 14:42N 31°40' W 080°03'2 8.2
2018-Jun-22 14:29N 31°42' W 080°02'5 8.1
2018-Jun-22 13:53N 31°46' W 079°59'4 8.1
2018-Jun-22 13:25N 31°50' W 079°58'4 9.0
2018-Jun-22 13:00N 31°53' W 079°56'4 8.9
2018-Jun-22 12:30N 31°57' W 079°54'4 8.8
2018-Jun-22 12:00N 32°01' W 079°51'7 8.7
2018-Jun-22 11:12N 32°07' W 079°48'2 8.6
2018-Jun-22 11:00N 32°09' W 079°47'4 8.5
2018-Jun-22 10:30N 32°13' W 079°45'28 7.9
2018-Jun-22 06:57N 32°41' W 079°44'611.2
2018-Jun-22 06:27N 32°44' W 079°49'4 9.9
2018-Jun-22 06:00N 32°46' W 079°54'4 8.1
2018-Jun-22 05:29N 32°50' W 079°56'4 7.9
2018-Jun-22 05:00N 32°54' W 079°58'0 1.0
2018-Jun-22 04:30N 32°53' W 079°58'0 0.0
2018-Jun-22 04:00N 32°53' W 079°58'0 0.0
2018-Jun-22 03:30N 32°53' W 079°58'0 0.0
2018-Jun-22 03:00N 32°53' W 079°58'0 0.0
2018-Jun-22 02:29N 32°53' W 079°58'2 0.7
2018-Jun-21 23:13N 32°51' W 079°57'0 0.0
2018-Jun-21 14:40N 32°51' W 079°57'2 0.7
2018-Jun-21 12:28N 32°50' W 079°56'4 7.8
2018-Jun-21 12:00N 32°47' W 079°54'130 6.8
2018-Jun-20 17:01N 34°12' W 077°57'0 7.2
2018-Jun-20 17:01N 34°12' W 077°57'1 2.0
2018-Jun-20 16:31N 34°13' W 077°57'0 0.0
2018-Jun-20 16:00N 34°13' W 077°57'0 0.0
2018-Jun-20 15:30N 34°13' W 077°57'0 0.0
2018-Jun-20 15:00N 34°13' W 077°57'0 0.0
2018-Jun-20 14:30N 34°13' W 077°57'0 0.0
2018-Jun-20 14:00N 34°13' W 077°57'0 0.0
2018-Jun-20 13:30N 34°13' W 077°57'0 0.0
2018-Jun-20 13:00N 34°13' W 077°57'0 0.0
2018-Jun-20 12:30N 34°13' W 077°57'0 0.0
2018-Jun-20 12:00N 34°13' W 077°57'0 0.0
2018-Jun-20 11:30N 34°13' W 077°57'0 0.0
2018-Jun-20 11:00N 34°13' W 077°57'0 0.0
2018-Jun-20 10:30N 34°13' W 077°57'0 0.0
2018-Jun-20 10:00N 34°13' W 077°57'0 0.0
2018-Jun-20 09:30N 34°13' W 077°57'0 0.0
2018-Jun-20 09:00N 34°13' W 077°57'0 0.0
2018-Jun-20 08:30N 34°13' W 077°57'0 0.0
2018-Jun-20 08:00N 34°13' W 077°57'0 0.8
2018-Jun-20 07:30N 34°13' W 077°57'47012.0
2018-Jun-18 16:18N 26°32' W 079°45'414.3
2018-Jun-18 16:00N 26°29' W 079°47'714.4
2018-Jun-18 15:30N 26°23' W 079°52'714.1
2018-Jun-18 15:00N 26°17' W 079°56'713.9
2018-Jun-18 14:30N 26°11' W 080°00'612.8
2018-Jun-18 14:00N 26°06' W 080°04'1 2.1
2018-Jun-18 13:30N 26°05' W 080°03'0 0.4
2018-Jun-18 13:00N 26°05' W 080°03'3 6.6
2018-Jun-18 12:30N 26°02' W 080°02'4 8.5
2018-Jun-18 12:00N 25°58' W 080°01'5 9.2
2018-Jun-18 11:30N 25°53' W 079°60'612.6
2018-Jun-18 11:00N 25°47' W 079°58'714.1
2018-Jun-18 10:30N 25°40' W 079°57'714.0
2018-Jun-18 10:01N 25°33' W 079°55'  
Track history (hours):
 
Tides and Currents Weather Stations Pressure Air Temp Water Temp Dewpoint Dewpoint Depression Visibility Wind Speed Wind Dir Waves Ship Positions

Courage

Owner: Intrepid Ship Management., jacksonville, FL. More information available from US FCC via Universal Licensing System and Coast Guard Vessel Documentation Center.

Last reported at 2018-Jun-22 17:20 UTC. Time now 2018-Jun-24 20:43 UTC.
Position N 31°21' W 080°13'.

Length 208 m; draft 6.4 m.

Type: Towing. MMSI: 368413000.

Date/timePositionNaut miles runAvg speedWind from/ knotsBaromVisibWave heightAir tempDewpointWater temp
2018-Jun-22 17:20N 31°21' W 080°13'4 7.8
2018-Jun-22 16:53N 31°24' W 080°11'11 8.0
2018-Jun-22 15:32N 31°34' W 080°06'4 8.3
2018-Jun-22 15:04N 31°38' W 080°04'3 8.2
2018-Jun-22 14:42N 31°40' W 080°03'2 8.2
2018-Jun-22 14:29N 31°42' W 080°02'5 8.1
2018-Jun-22 13:53N 31°46' W 079°59'4 8.1
2018-Jun-22 13:25N 31°50' W 079°58'4 9.0
2018-Jun-22 13:00N 31°53' W 079°56'4 8.9
2018-Jun-22 12:30N 31°57' W 079°54'4 8.8
2018-Jun-22 12:00N 32°01' W 079°51'7 8.7
2018-Jun-22 11:12N 32°07' W 079°48'2 8.6
2018-Jun-22 11:00N 32°09' W 079°47'4 8.5
2018-Jun-22 10:30N 32°13' W 079°45'28 7.9
2018-Jun-22 06:57N 32°41' W 079°44'611.2
2018-Jun-22 06:27N 32°44' W 079°49'4 9.9
2018-Jun-22 06:00N 32°46' W 079°54'4 8.1
2018-Jun-22 05:29N 32°50' W 079°56'4 7.9
2018-Jun-22 05:00N 32°54' W 079°58'0 1.0
2018-Jun-22 04:30N 32°53' W 079°58'0 0.0
2018-Jun-22 04:00N 32°53' W 079°58'0 0.0
2018-Jun-22 03:30N 32°53' W 079°58'0 0.0
2018-Jun-22 03:00N 32°53' W 079°58'0 0.0
2018-Jun-22 02:29N 32°53' W 079°58'2 0.7
2018-Jun-21 23:13N 32°51' W 079°57'0 0.0
2018-Jun-21 14:40N 32°51' W 079°57'2 0.7
2018-Jun-21 12:28N 32°50' W 079°56'4 7.8
2018-Jun-21 12:00N 32°47' W 079°54'130 6.8
2018-Jun-20 17:01N 34°12' W 077°57'0 7.2
2018-Jun-20 17:01N 34°12' W 077°57'1 2.0
2018-Jun-20 16:31N 34°13' W 077°57'0 0.0
2018-Jun-20 16:00N 34°13' W 077°57'0 0.0
2018-Jun-20 15:30N 34°13' W 077°57'0 0.0
2018-Jun-20 15:00N 34°13' W 077°57'0 0.0
2018-Jun-20 14:30N 34°13' W 077°57'0 0.0
2018-Jun-20 14:00N 34°13' W 077°57'0 0.0
2018-Jun-20 13:30N 34°13' W 077°57'0 0.0
2018-Jun-20 13:00N 34°13' W 077°57'0 0.0
2018-Jun-20 12:30N 34°13' W 077°57'0 0.0
2018-Jun-20 12:00N 34°13' W 077°57'0 0.0
2018-Jun-20 11:30N 34°13' W 077°57'0 0.0
2018-Jun-20 11:00N 34°13' W 077°57'0 0.0
2018-Jun-20 10:30N 34°13' W 077°57'0 0.0
2018-Jun-20 10:00N 34°13' W 077°57'0 0.0
2018-Jun-20 09:30N 34°13' W 077°57'0 0.0
2018-Jun-20 09:00N 34°13' W 077°57'0 0.0
2018-Jun-20 08:30N 34°13' W 077°57'0 0.0
2018-Jun-20 08:00N 34°13' W 077°57'0 0.8
2018-Jun-20 07:30N 34°13' W 077°57'47012.0
2018-Jun-18 16:18N 26°32' W 079°45'414.3
2018-Jun-18 16:00N 26°29' W 079°47'714.4
2018-Jun-18 15:30N 26°23' W 079°52'714.1
2018-Jun-18 15:00N 26°17' W 079°56'713.9
2018-Jun-18 14:30N 26°11' W 080°00'612.8
2018-Jun-18 14:00N 26°06' W 080°04'1 2.1
2018-Jun-18 13:30N 26°05' W 080°03'0 0.4
2018-Jun-18 13:00N 26°05' W 080°03'3 6.6
2018-Jun-18 12:30N 26°02' W 080°02'4 8.5
2018-Jun-18 12:00N 25°58' W 080°01'5 9.2
2018-Jun-18 11:30N 25°53' W 079°60'612.6
2018-Jun-18 11:00N 25°47' W 079°58'714.1
2018-Jun-18 10:30N 25°40' W 079°57'714.0
2018-Jun-18 10:01N 25°33' W 079°55'  

Dump ship's entire track history